Terminal Aerodrome Forecast
Issued by NWS Newport/Morehead City, NC

Home | Current Version | Previous Version | Text Only | Print | Product List | Glossary On
Versions: 1 2 3 4 5 6 7 8 9 10 11 12 13 14 15 16 17 18 19 20
898
FTUS42 KMHX 070540
TAFEWN
TAF
KEWN 070540Z 0706/0806 03010KT P6SM OVC070
     FM070730 01013G19KT P6SM -RA FEW025 OVC050
     FM071300 01017G24KT 6SM RA OVC040
     FM071600 01019G30KT 5SM RA SCT007 OVC012
     FM080100 35015G25KT 6SM -RA SCT015 BKN045=

USA.gov is the U.S. government's official web portal to all federal, state and local government web resources and services.